createdAt,value
2018-11-26T00:00:35.703Z,68.17
2018-11-26T00:03:08.018Z,70.67
2018-11-26T00:05:36.858Z,76.53
2018-11-26T00:08:05.212Z,79.75
2018-11-26T00:10:44.864Z,81.87
2018-11-26T00:13:13.049Z,80.35
2018-11-26T00:15:41.182Z,72.20
2018-11-26T00:18:09.417Z,79.42
2018-11-26T00:20:37.637Z,76.72
2018-11-26T00:23:06.594Z,75.78
2018-11-26T00:25:34.833Z,80.07
2018-11-26T00:28:03.045Z,99.77
2018-11-26T00:30:31.373Z,86.37
2018-11-26T00:32:59.652Z,88.50
2018-11-26T00:35:27.853Z,81.22
2018-11-26T00:37:56.067Z,92.25
2018-11-26T00:40:24.289Z,98.97
2018-11-26T00:42:52.493Z,97.67
2018-11-26T00:45:20.712Z,81.28
2018-11-26T00:47:48.862Z,103.30
2018-11-26T00:50:17.066Z,90.85
2018-11-26T00:52:45.233Z,102.82
2018-11-26T00:55:13.387Z,97.60
2018-11-26T00:57:41.617Z,96.05
2018-11-26T01:00:11.233Z,99.03
2018-11-26T01:02:39.410Z,94.05
2018-11-26T01:05:07.905Z,99.20
2018-11-26T01:07:36.080Z,97.33
2018-11-26T01:10:04.257Z,95.30
2018-11-26T01:12:32.407Z,98.47
2018-11-26T01:15:00.568Z,93.17
2018-11-26T01:17:28.722Z,86.92
2018-11-26T01:19:56.999Z,87.75
2018-11-26T01:22:25.145Z,99.40
2018-11-26T01:24:53.302Z,102.78
2018-11-26T01:27:21.557Z,93.97
2018-11-26T01:29:49.757Z,100.53
2018-11-26T01:32:17.905Z,103.97
2018-11-26T01:34:46.119Z,101.18
2018-11-26T01:37:14.315Z,102.10
2018-11-26T01:39:43.241Z,114.15
2018-11-26T01:42:11.412Z,111.03
2018-11-26T01:44:39.635Z,115.12
2018-11-26T01:47:07.777Z,106.50
2018-11-26T01:49:35.940Z,121.28
2018-11-26T01:52:04.089Z,125.92
2018-11-26T01:54:32.220Z,129.05
2018-11-26T01:57:00.383Z,117.42
2018-11-26T01:59:28.554Z,132.57
2018-11-26T02:01:56.708Z,117.05
2018-11-26T02:04:24.878Z,125.27
2018-11-26T02:06:53.050Z,127.00
2018-11-26T02:09:22.251Z,126.35
2018-11-26T02:11:50.428Z,112.32
2018-11-26T02:14:18.571Z,122.25
2018-11-26T02:16:46.741Z,133.65
2018-11-26T02:19:14.910Z,142.70
2018-11-26T02:21:43.053Z,137.15
2018-11-26T02:24:11.233Z,115.08
2018-11-26T02:26:39.462Z,147.72
2018-11-26T02:29:07.670Z,161.55
2018-11-26T02:31:35.886Z,143.97
2018-11-26T02:34:04.045Z,127.72
2018-11-26T02:36:32.174Z,133.32
2018-11-26T02:39:00.431Z,133.57
2018-11-26T02:41:28.641Z,125.85
2018-11-26T02:43:56.796Z,128.68
2018-11-26T02:46:24.975Z,127.15
2018-11-26T02:48:53.172Z,128.57
2018-11-26T02:51:21.329Z,129.68
2018-11-26T02:53:49.477Z,114.95
2018-11-26T02:56:17.670Z,110.42
2018-11-26T02:58:45.864Z,124.18
2018-11-26T03:01:14.077Z,117.80
2018-11-26T03:03:42.317Z,104.35
2018-11-26T03:06:10.464Z,115.95
2018-11-26T03:08:38.616Z,114.30
2018-11-26T03:11:06.784Z,115.37
2018-11-26T03:13:34.946Z,109.03
2018-11-26T03:16:03.113Z,104.45
2018-11-26T03:18:31.260Z,115.90
2018-11-26T03:20:59.482Z,105.58
2018-11-26T03:23:27.665Z,116.53
2018-11-26T03:25:55.838Z,113.12
2018-11-26T03:28:24.013Z,106.32
2018-11-26T03:30:52.160Z,104.38
2018-11-26T03:33:20.303Z,114.03
2018-11-26T03:35:48.456Z,110.90
2018-11-26T03:38:21.876Z,110.80
2018-11-26T03:40:50.020Z,104.38
2018-11-26T03:43:18.165Z,106.32
2018-11-26T03:45:46.309Z,118.25
2018-11-26T03:48:14.503Z,111.17
2018-11-26T03:50:42.652Z,102.45
2018-11-26T03:53:10.835Z,100.50
2018-11-26T03:55:38.983Z,114.30
2018-11-26T03:58:07.125Z,106.58
2018-11-26T04:00:35.669Z,100.82
2018-11-26T04:03:03.796Z,112.17
2018-11-26T04:05:31.920Z,92.97
2018-11-26T04:08:00.026Z,105.50
2018-11-26T04:10:28.159Z,97.55
2018-11-26T04:12:56.292Z,105.63
2018-11-26T04:15:24.562Z,104.32
2018-11-26T04:17:52.722Z,106.85
2018-11-26T04:20:20.844Z,106.60
2018-11-26T04:22:48.988Z,112.47
2018-11-26T04:25:17.137Z,106.22
2018-11-26T04:27:45.258Z,119.33
2018-11-26T04:30:13.408Z,105.25
2018-11-26T04:32:41.529Z,118.53
2018-11-26T04:35:10.024Z,100.15
2018-11-26T04:37:38.184Z,102.65
2018-11-26T04:40:08.424Z,99.07
2018-11-26T04:42:36.555Z,94.35
2018-11-26T04:45:05.137Z,102.67
2018-11-26T04:47:33.328Z,113.47
2018-11-26T04:50:01.425Z,108.22
2018-11-26T04:52:30.704Z,110.88
2018-11-26T04:54:59.000Z,112.88
2018-11-26T04:57:27.186Z,98.15
2018-11-26T04:59:55.365Z,130.67
2018-11-26T05:02:23.498Z,105.65
2018-11-26T05:04:51.590Z,121.57
2018-11-26T05:07:19.736Z,111.03
2018-11-26T05:09:47.957Z,97.65
2018-11-26T05:12:16.088Z,109.87
2018-11-26T05:14:44.232Z,99.28
2018-11-26T05:17:12.345Z,113.00
2018-11-26T05:19:40.449Z,97.25
2018-11-26T05:22:08.591Z,107.35
2018-11-26T05:24:36.689Z,98.55
2018-11-26T05:27:04.909Z,106.27
2018-11-26T05:29:33.040Z,92.60
2018-11-26T05:32:01.145Z,89.00
2018-11-26T05:34:29.238Z,128.47
2018-11-26T05:36:57.389Z,99.83
2018-11-26T05:39:25.514Z,107.97
2018-11-26T05:41:53.657Z,110.57
2018-11-26T05:44:21.847Z,112.57
2018-11-26T05:46:49.935Z,98.00
2018-11-26T05:49:18.056Z,94.50
2018-11-26T05:51:46.200Z,117.35
2018-11-26T05:54:14.404Z,101.42
2018-11-26T05:56:42.564Z,94.72
2018-11-26T05:59:10.737Z,109.05
2018-11-26T06:01:38.872Z,114.10
2018-11-26T06:04:07.012Z,108.45
2018-11-26T06:06:35.166Z,112.28
2018-11-26T06:09:04.089Z,119.22
2018-11-26T06:11:32.202Z,122.28
2018-11-26T06:14:00.367Z,97.82
2018-11-26T06:16:28.548Z,114.72
2018-11-26T06:18:56.677Z,111.28
2018-11-26T06:21:24.824Z,128.93
2018-11-26T06:23:52.960Z,121.10
2018-11-26T06:26:21.212Z,124.33
2018-11-26T06:28:49.332Z,119.95
2018-11-26T06:31:17.465Z,114.15
2018-11-26T06:33:45.625Z,108.97
2018-11-26T06:36:13.913Z,128.18
2018-11-26T06:41:25.100Z,120.00
2018-11-26T06:43:53.259Z,99.00
2018-11-26T06:46:21.434Z,116.10
2018-11-26T06:48:49.645Z,128.62
2018-11-26T06:51:17.796Z,105.55
2018-11-26T06:53:45.957Z,115.92
2018-11-26T06:56:14.147Z,115.10
2018-11-26T06:58:42.344Z,109.63
2018-11-26T07:01:10.645Z,135.60
2018-11-26T07:03:38.775Z,121.47
2018-11-26T07:06:07.411Z,119.65
2018-11-26T07:08:35.547Z,119.22
2018-11-26T07:11:03.721Z,101.25
2018-11-26T07:13:32.090Z,112.12
2018-11-26T07:16:00.258Z,108.05
2018-11-26T07:18:28.555Z,114.85
2018-11-26T07:20:56.849Z,124.87
2018-11-26T07:23:25.105Z,106.80
2018-11-26T07:25:53.583Z,120.08
2018-11-26T07:28:21.724Z,131.65
2018-11-26T07:30:49.951Z,117.22
2018-11-26T07:33:18.310Z,116.08
2018-11-26T07:35:46.282Z,126.15
2018-11-26T07:38:14.441Z,113.17
2018-11-26T07:40:42.630Z,123.78
2018-11-26T07:43:12.000Z,110.70
2018-11-26T07:45:40.274Z,116.77
2018-11-26T07:48:09.586Z,122.65
2018-11-26T07:50:37.761Z,139.10
2018-11-26T07:53:07.561Z,131.47
2018-11-26T07:55:35.836Z,122.72
2018-11-26T07:58:03.995Z,146.30
2018-11-26T08:00:32.118Z,114.15
2018-11-26T08:03:00.221Z,122.13
2018-11-26T08:05:28.359Z,118.33
2018-11-26T08:07:56.477Z,130.40
2018-11-26T08:10:24.615Z,119.47
2018-11-26T08:12:54.384Z,126.45
2018-11-26T08:15:23.668Z,143.52
2018-11-26T08:17:51.822Z,119.08
2018-11-26T08:20:19.996Z,118.08
2018-11-26T08:22:48.140Z,118.33
2018-11-26T08:25:17.596Z,109.97
2018-11-26T08:27:46.626Z,122.30
2018-11-26T08:30:16.674Z,117.97
2018-11-26T08:32:45.966Z,114.75
2018-11-26T08:35:15.079Z,102.17
2018-11-26T08:37:48.584Z,112.45
2018-11-26T08:40:18.975Z,101.40
2018-11-26T08:42:52.463Z,94.77
2018-11-26T08:45:24.857Z,104.90
2018-11-26T08:48:28.355Z,88.42
2018-11-26T08:50:57.648Z,96.40
2018-11-26T08:53:25.808Z,104.43
2018-11-26T08:55:53.964Z,102.38
2018-11-26T08:58:22.085Z,103.20
2018-11-26T09:01:59.555Z,102.90
2018-11-26T09:04:31.759Z,95.92
2018-11-26T09:06:59.904Z,102.12
2018-11-26T09:09:32.781Z,95.17
2018-11-26T09:11:56.185Z,89.87
2018-11-26T09:14:24.283Z,101.72
2018-11-26T09:16:52.399Z,97.02
2018-11-26T09:19:20.570Z,92.70
2018-11-26T09:21:48.669Z,93.50
2018-11-26T09:24:16.805Z,104.75
2018-11-26T09:26:44.948Z,93.17
2018-11-26T09:29:13.263Z,95.30
2018-11-26T09:31:41.209Z,98.62
2018-11-26T09:34:09.388Z,111.05
2018-11-26T09:36:37.513Z,83.60
2018-11-26T09:39:09.969Z,96.57
2018-11-26T09:41:38.831Z,88.03
2018-11-26T09:44:07.232Z,95.35
2018-11-26T09:46:35.919Z,101.05
2018-11-26T09:49:04.054Z,101.65
2018-11-26T09:51:32.213Z,96.95
2018-11-26T09:54:00.338Z,85.95
2018-11-26T09:56:28.472Z,105.12
2018-11-26T09:58:56.633Z,103.05
2018-11-26T10:01:24.768Z,109.27
2018-11-26T10:03:52.889Z,98.03
2018-11-26T10:06:21.032Z,88.30
2018-11-26T10:08:49.141Z,93.95
2018-11-26T10:11:17.284Z,82.37
2018-11-26T10:13:45.401Z,77.45
2018-11-26T10:16:13.525Z,68.25
2018-11-26T10:18:41.643Z,80.12
2018-11-26T10:21:09.761Z,87.25
2018-11-26T10:23:37.889Z,75.37
2018-11-26T10:26:06.014Z,82.65
2018-11-26T10:28:34.142Z,77.10
2018-11-26T10:31:02.268Z,66.15
2018-11-26T10:33:30.371Z,67.92
2018-11-26T10:35:58.545Z,80.30
2018-11-26T10:38:26.647Z,69.22
2018-11-26T10:40:54.758Z,70.30
2018-11-26T10:43:22.863Z,73.52
2018-11-26T10:45:51.041Z,58.28
2018-11-26T10:48:19.153Z,47.00
2018-11-26T10:50:47.260Z,54.65
2018-11-26T10:53:15.438Z,68.05
2018-11-26T10:55:43.582Z,59.70
2018-11-26T10:58:11.735Z,55.52
2018-11-26T11:00:45.225Z,49.85
2018-11-26T11:03:13.358Z,47.98
2018-11-26T11:05:41.522Z,48.92
2018-11-26T11:08:09.619Z,47.20
2018-11-26T11:10:37.741Z,45.58
2018-11-26T11:13:06.735Z,52.58
2018-11-26T11:15:34.938Z,45.28
2018-11-26T11:18:03.076Z,44.53
2018-11-26T11:20:31.184Z,46.13
2018-11-26T11:22:59.284Z,43.75
2018-11-26T11:25:27.390Z,40.88
2018-11-26T11:27:56.433Z,41.65
2018-11-26T11:30:25.622Z,41.98
2018-11-26T11:32:53.649Z,42.62
2018-11-26T11:35:21.849Z,47.83
2018-11-26T11:37:50.692Z,48.55
2018-11-26T11:40:20.868Z,47.38
2018-11-26T11:42:49.114Z,44.40
2018-11-26T11:45:17.334Z,46.33
2018-11-26T11:47:45.499Z,41.23
2018-11-26T11:50:14.738Z,44.88
2018-11-26T11:52:42.870Z,45.95
2018-11-26T11:55:15.138Z,48.92
2018-11-26T11:57:43.250Z,53.75
2018-11-26T12:00:32.645Z,51.37
2018-11-26T12:03:01.767Z,49.83
2018-11-26T12:05:29.898Z,52.55
2018-11-26T12:07:58.003Z,45.25
2018-11-26T12:10:26.184Z,42.43
2018-11-26T12:12:54.310Z,60.45
2018-11-26T12:15:22.489Z,48.83
2018-11-26T12:17:50.630Z,49.98
2018-11-26T12:20:18.762Z,53.17
2018-11-26T12:22:46.931Z,47.40
2018-11-26T12:25:17.066Z,48.60
2018-11-26T12:27:45.170Z,50.38
2018-11-26T12:30:20.497Z,52.60
2018-11-26T12:32:48.633Z,52.17
2018-11-26T12:35:16.827Z,46.50
2018-11-26T12:37:44.959Z,60.50
2018-11-26T12:40:15.349Z,54.90
2018-11-26T12:42:43.465Z,55.92
2018-11-26T12:45:16.105Z,59.77
2018-11-26T12:47:44.299Z,53.98
2018-11-26T12:50:12.432Z,53.30
2018-11-26T12:52:40.550Z,56.15
2018-11-26T12:55:11.867Z,49.80
2018-11-26T12:57:40.854Z,54.75
2018-11-26T13:00:18.332Z,65.15
2018-11-26T13:02:48.798Z,56.25
2018-11-26T13:05:17.755Z,60.45
2018-11-26T13:07:45.858Z,59.33
2018-11-26T13:10:16.817Z,60.75
2018-11-26T13:12:45.465Z,56.13
2018-11-26T13:15:15.034Z,65.52
2018-11-26T13:17:43.189Z,67.32
2018-11-26T13:20:16.422Z,71.90
2018-11-26T13:22:44.690Z,56.70
2018-11-26T13:25:14.810Z,70.70
2018-11-26T13:27:45.354Z,67.58
2018-11-26T13:30:15.835Z,63.52
2018-11-26T13:32:45.287Z,73.57
2018-11-26T13:35:14.299Z,72.95
2018-11-26T13:37:42.467Z,73.37
2018-11-26T13:40:11.792Z,75.95
2018-11-26T13:42:40.070Z,74.30
2018-11-26T13:45:09.964Z,71.65
2018-11-26T13:47:38.298Z,83.20
2018-11-26T13:50:09.898Z,68.37
2018-11-26T13:52:38.030Z,76.80
2018-11-26T13:55:08.523Z,69.80
2018-11-26T13:57:36.661Z,80.28
2018-11-26T14:00:06.398Z,76.75
2018-11-26T14:02:34.567Z,77.10
2018-11-26T14:05:02.666Z,68.67
2018-11-26T14:07:30.781Z,61.90
2018-11-26T14:09:58.993Z,73.15
2018-11-26T14:12:27.156Z,64.22
2018-11-26T14:14:55.312Z,59.65
2018-11-26T14:17:23.457Z,62.30
2018-11-26T14:19:51.621Z,55.67
2018-11-26T14:22:19.787Z,57.30
2018-11-26T14:24:47.962Z,60.12
2018-11-26T14:27:16.124Z,49.58
2018-11-26T14:29:44.279Z,46.35
2018-11-26T14:32:12.492Z,49.15
2018-11-26T14:34:40.614Z,54.48
2018-11-26T14:37:08.864Z,55.98
2018-11-26T14:39:36.986Z,49.70
2018-11-26T14:42:05.347Z,53.38
2018-11-26T14:44:33.534Z,53.48
2018-11-26T14:47:01.725Z,58.55
2018-11-26T14:49:29.862Z,57.20
2018-11-26T14:51:58.038Z,55.55
2018-11-26T14:54:26.278Z,67.92
2018-11-26T14:56:54.728Z,62.30
2018-11-26T14:59:22.939Z,58.33
2018-11-26T15:01:51.057Z,59.67
2018-11-26T15:04:19.236Z,51.33
2018-11-26T15:06:47.459Z,54.60
2018-11-26T15:09:15.691Z,50.05
2018-11-26T15:11:43.788Z,50.55
2018-11-26T15:14:11.893Z,47.70
2018-11-26T15:16:40.034Z,50.92
2018-11-26T15:19:08.227Z,43.73
2018-11-26T15:21:36.514Z,48.95
2018-11-26T15:24:04.676Z,49.48
2018-11-26T15:26:32.920Z,39.78
2018-11-26T15:29:01.089Z,46.23
2018-11-26T15:31:34.709Z,41.18
2018-11-26T15:34:02.894Z,42.55
2018-11-26T15:36:31.079Z,38.80
2018-11-26T15:38:59.210Z,39.53
2018-11-26T15:41:27.360Z,42.23
2018-11-26T15:43:55.519Z,40.15
2018-11-26T15:46:23.690Z,48.65
2018-11-26T15:48:51.825Z,36.03
2018-11-26T15:51:19.947Z,42.13
2018-11-26T15:53:48.105Z,40.05
2018-11-26T15:56:16.555Z,38.25
2018-11-26T15:58:44.989Z,43.13
2018-11-26T16:01:13.131Z,42.40
2018-11-26T16:03:41.328Z,39.18
2018-11-26T16:06:09.525Z,41.85
2018-11-26T16:08:37.757Z,41.58
2018-11-26T16:11:06.067Z,43.05
2018-11-26T16:13:34.256Z,45.03
2018-11-26T16:16:02.434Z,45.23
2018-11-26T16:18:30.609Z,39.58
2018-11-26T16:20:58.774Z,39.00
2018-11-26T16:23:26.928Z,39.70
2018-11-26T16:25:55.168Z,41.55
2018-11-26T16:28:23.676Z,37.75
2018-11-26T16:30:52.216Z,42.13
2018-11-26T16:33:20.392Z,46.45
2018-11-26T16:35:48.514Z,42.17
2018-11-26T16:38:16.719Z,40.15
2018-11-26T16:40:44.946Z,40.90
2018-11-26T16:43:13.125Z,42.55
2018-11-26T16:45:41.371Z,40.30
2018-11-26T16:48:09.774Z,39.78
2018-11-26T16:50:38.036Z,44.25
2018-11-26T16:53:06.982Z,42.62
2018-11-26T16:55:40.001Z,43.38
2018-11-26T16:58:08.143Z,41.63
2018-11-26T17:00:38.026Z,41.83
2018-11-26T17:03:06.256Z,38.67
2018-11-26T17:05:39.033Z,43.73
2018-11-26T17:08:10.557Z,44.90
2018-11-26T17:10:38.957Z,41.37
2018-11-26T17:13:07.422Z,43.65
2018-11-26T17:15:35.628Z,44.40
2018-11-26T17:18:03.847Z,40.23
2018-11-26T17:20:31.979Z,42.17
2018-11-26T17:23:00.084Z,45.63
2018-11-26T17:25:28.250Z,42.83
2018-11-26T17:27:56.364Z,45.25
2018-11-26T17:30:25.963Z,45.10
2018-11-26T17:32:56.608Z,42.00
2018-11-26T17:35:24.846Z,49.77
2018-11-26T17:37:52.974Z,41.02
2018-11-26T17:40:22.001Z,44.48
2018-11-26T17:42:50.584Z,52.08
2018-11-26T17:45:19.284Z,46.33
2018-11-26T17:47:52.658Z,41.28
2018-11-26T17:50:25.479Z,42.05
2018-11-26T17:52:53.690Z,48.08
2018-11-26T17:55:21.839Z,46.37
2018-11-26T17:57:50.171Z,41.10
2018-11-26T18:00:22.609Z,39.73
2018-11-26T18:02:50.750Z,39.48
2018-11-26T18:05:23.055Z,40.52
2018-11-26T18:07:56.122Z,41.35
2018-11-26T18:10:24.338Z,46.42
2018-11-26T18:12:52.450Z,41.98
2018-11-26T18:15:20.587Z,43.15
2018-11-26T18:17:48.763Z,45.05
2018-11-26T18:20:18.859Z,41.63
2018-11-26T18:22:48.388Z,45.30
2018-11-26T18:25:17.207Z,45.95
2018-11-26T18:27:54.017Z,43.48
2018-11-26T18:30:31.773Z,45.00
2018-11-26T18:32:59.942Z,42.30
2018-11-26T18:35:28.099Z,41.00
2018-11-26T18:37:56.343Z,40.88
2018-11-26T18:40:24.521Z,43.68
2018-11-26T18:42:52.788Z,41.83
2018-11-26T18:45:21.121Z,41.77
2018-11-26T18:47:49.302Z,39.25
2018-11-26T18:50:18.600Z,36.40
2018-11-26T18:52:48.006Z,35.15
2018-11-26T18:55:16.638Z,39.48
2018-11-26T18:57:44.860Z,33.38
2018-11-26T19:00:20.330Z,40.80
2018-11-26T19:02:48.582Z,43.00
2018-11-26T19:05:17.677Z,36.13
2018-11-26T19:07:45.993Z,35.50
2018-11-26T19:10:16.467Z,40.25
2018-11-26T19:12:46.206Z,38.45
2018-11-26T19:15:32.464Z,36.80
2018-11-26T19:18:07.238Z,36.10
2018-11-26T19:20:35.406Z,38.67
2018-11-26T19:23:03.733Z,40.12
2018-11-26T19:25:31.858Z,43.48
2018-11-26T19:28:00.015Z,51.18
2018-11-26T19:30:28.461Z,43.55
2018-11-26T19:32:56.658Z,45.50
2018-11-26T19:35:24.823Z,51.05
2018-11-26T19:37:52.979Z,50.30
2018-11-26T19:40:21.164Z,53.75
2018-11-26T19:42:49.294Z,44.05
2018-11-26T19:45:19.590Z,45.92
2018-11-26T19:47:47.844Z,42.90
2018-11-26T19:50:18.291Z,44.75
2018-11-26T19:52:47.817Z,45.80
2018-11-26T19:55:18.946Z,42.88
2018-11-26T19:57:47.129Z,39.18
2018-11-26T20:00:18.591Z,45.55
2018-11-26T20:02:49.336Z,49.75
2018-11-26T20:05:46.828Z,46.68
2018-11-26T20:08:15.102Z,40.65
2018-11-26T20:10:43.310Z,46.23
2018-11-26T20:13:11.524Z,43.65
2018-11-26T20:15:39.738Z,48.28
2018-11-26T20:18:07.923Z,41.83
2018-11-26T20:20:36.787Z,42.67
2018-11-26T20:23:05.076Z,44.58
2018-11-26T20:25:33.267Z,43.02
2018-11-26T20:28:01.406Z,43.52
2018-11-26T20:30:29.613Z,46.40
2018-11-26T20:32:57.843Z,42.13
2018-11-26T20:35:26.067Z,44.67
2018-11-26T20:37:54.315Z,40.38
2018-11-26T20:40:22.523Z,45.67
2018-11-26T20:42:54.095Z,44.75
2018-11-26T20:45:22.215Z,40.35
2018-11-26T20:47:51.319Z,40.75
2018-11-26T20:50:26.028Z,38.83
2018-11-26T20:52:54.228Z,46.85
2018-11-26T20:55:23.643Z,38.10
2018-11-26T20:57:52.867Z,37.45
2018-11-26T21:00:22.303Z,41.15
2018-11-26T21:02:51.703Z,45.70
2018-11-26T21:05:20.035Z,43.45
2018-11-26T21:07:48.150Z,41.75
2018-11-26T21:10:16.568Z,44.93
2018-11-26T21:12:44.711Z,39.92
2018-11-26T21:15:13.879Z,45.60
2018-11-26T21:17:43.173Z,41.08
2018-11-26T21:20:14.321Z,47.48
2018-11-26T21:22:42.474Z,51.00
2018-11-26T21:25:13.439Z,45.95
2018-11-26T21:27:41.615Z,45.15
2018-11-26T21:30:14.572Z,48.13
2018-11-26T21:32:42.716Z,42.50
2018-11-26T21:35:14.563Z,52.85
2018-11-26T21:37:43.854Z,49.65
2018-11-26T21:40:14.036Z,44.65
2018-11-26T21:42:42.311Z,53.35
2018-11-26T21:45:12.676Z,50.83
2018-11-26T21:47:40.833Z,59.65
2018-11-26T21:50:12.194Z,60.38
2018-11-26T21:55:16.165Z,49.08
2018-11-26T21:57:44.367Z,50.52
2018-11-26T22:00:20.840Z,55.30
2018-11-26T22:02:49.166Z,57.73
2018-11-26T22:05:17.311Z,51.02
2018-11-26T22:07:45.443Z,53.08
2018-11-26T22:10:15.356Z,48.42
2018-11-26T22:12:44.904Z,53.80
2018-11-26T22:15:13.539Z,54.67
2018-11-26T22:17:42.823Z,44.00
2018-11-26T22:20:12.502Z,44.95
2018-11-26T22:22:40.683Z,47.70
2018-11-26T22:25:10.690Z,51.98
2018-11-26T22:27:38.899Z,48.58
2018-11-26T22:30:13.039Z,44.75
2018-11-26T22:32:41.144Z,45.03
2018-11-26T22:35:09.700Z,37.55
2018-11-26T22:37:37.837Z,44.83
2018-11-26T22:40:09.419Z,41.23
2018-11-26T22:42:37.712Z,40.95
2018-11-26T22:45:10.287Z,39.92
2018-11-26T22:47:38.438Z,40.45
2018-11-26T22:50:11.308Z,42.45
2018-11-26T22:52:39.872Z,40.55
2018-11-26T22:55:09.265Z,47.27
2018-11-26T22:57:37.416Z,42.67
2018-11-26T23:00:11.089Z,40.35
2018-11-26T23:02:39.297Z,42.93
2018-11-26T23:05:07.972Z,38.50
2018-11-26T23:07:36.105Z,40.73
2018-11-26T23:10:07.415Z,37.83
2018-11-26T23:12:35.554Z,39.95
2018-11-26T23:15:03.706Z,41.68
2018-11-26T23:17:31.887Z,39.60
2018-11-26T23:20:00.053Z,38.48
2018-11-26T23:22:28.223Z,38.83
2018-11-26T23:24:56.438Z,41.45
2018-11-26T23:27:24.557Z,43.20
2018-11-26T23:29:52.698Z,47.33
2018-11-26T23:32:20.840Z,43.17
2018-11-26T23:34:48.973Z,40.60
2018-11-26T23:37:17.140Z,47.70
2018-11-26T23:39:45.278Z,43.95
2018-11-26T23:42:13.563Z,51.15
2018-11-26T23:44:41.683Z,47.55
2018-11-26T23:47:09.822Z,39.38
2018-11-26T23:49:38.010Z,45.35
2018-11-26T23:52:06.219Z,48.60
2018-11-26T23:54:34.359Z,44.20
2018-11-26T23:57:02.547Z,45.63
2018-11-26T23:59:30.707Z,50.95
